In Rescue
 
Open Full Screen Window  High Contrast Mode
Wind Gusting 00 knots
03
November 14, 2019 1:11 PM CST
Weather Information
Wind Direction
  220 °
Wind Speed
  03 kt (3 mph)
Wind Gust
  00 kt (0 mph)
Altimeter
30.16 in
Visibility
10 SM
Temperature
03° C
37° F
Dewpoint
-05° C
23° F
Humidity
56%
1hr Rain Fall
00.00 in.
24hr Rain Fall
00.00 in.
Sky Condition
Overcast @ 6,500 ft
Scattered @ 4,800 ft
VFR

METAR KAQP 141911Z AUTO 22003KT 10SM SCT048 OVC065 03/M05 A3016 RMK AO2

FAA Disclaimer: The data displayed is for advisory purposes only and is not to be used for flight planning or operations.